»·PEaware :: N733AM KWHP-KCNO

N733AM :: KWHP-KCNO

FLIGHT INFORMATION

Flight Status: Arrived
Operator: Privately registered:
United States
More flights under this callsign
Pilot: Matthew C. (1987)
Aircraft: CESSNA 172 SKYHAWK
(C172)
More flights by this aircraft type
Origin: KWHP Whiteman
United States
Destination: KCNO Chino
United States
More flights between these airports :: More routes between these airports
Route: +VNY V186 PDZ
File this flight plan on PilotEdge
Remarks:
Altitude:
(Current/Filed)
5,000ft
Speed:
(Current/Filed)
0kts
Departed: 07-Aug-13 07:51 PM
Arrived: 07-Aug-13 08:45 PM
Distance/Time
Traveled:
42nm/0:54
Distance/Time
To Go:
Arrived

Flight Plot

Page will automatically refresh every two minutes.

Flight plan parsing failed; only flown route is shown


Map Options




Map Legend


Flown Route
Filed Route
Departure Airport
Arrival Airport
Navaid (VOR, NDB)
Fix

Horizontal Profiles

Position Reports

Time Latitude Longitude Heading Altitude Ground
Speed
07-Aug-13 19:44 34.261748 -118.414871 140 1006ft 0kts
07-Aug-13 19:45 34.261748 -118.414871 140 1006ft 0kts
07-Aug-13 19:46 34.261748 -118.414871 140 1006ft 0kts
07-Aug-13 19:47 34.261748 -118.414871 140 1006ft 0kts
07-Aug-13 19:48 34.261748 -118.414871 140 1006ft 0kts
07-Aug-13 19:49 34.261748 -118.414871 140 1006ft 0kts
07-Aug-13 19:50 34.259857 -118.413364 135 1006ft 27kts
07-Aug-13 19:51 34.255515 -118.408918 147 1006ft 0kts
07-Aug-13 19:52 34.255365 -118.408879 171 1006ft 6kts
07-Aug-13 19:53 34.263637 -118.418071 323 1196ft 88kts
07-Aug-13 19:54 34.272006 -118.444663 274 1980ft 100kts
07-Aug-13 19:55 34.275311 -118.473535 277 2951ft 86kts
07-Aug-13 19:56 34.278719 -118.502151 272 3749ft 87kts
07-Aug-13 19:57 34.290748 -118.523998 332 4508ft 87kts
07-Aug-13 19:58 34.292668 -118.555616 251 4899ft 107kts
07-Aug-13 19:59 34.274894 -118.564155 150 4939ft 94kts
07-Aug-13 20:00 34.259785 -118.540123 116 5030ft 90kts
07-Aug-13 20:01 34.242760 -118.516476 124 4981ft 103kts
07-Aug-13 20:02 34.222463 -118.491753 129 4996ft 110kts
07-Aug-13 20:03 34.211974 -118.457714 110 4960ft 109kts
07-Aug-13 20:04 34.202400 -118.425061 111 4965ft 109kts
07-Aug-13 20:05 34.191018 -118.390605 112 4967ft 110kts
07-Aug-13 20:06 34.180351 -118.355622 112 4969ft 111kts
07-Aug-13 20:07 34.170220 -118.320003 110 4971ft 113kts
07-Aug-13 20:08 34.160278 -118.283888 112 4970ft 113kts
07-Aug-13 20:09 34.149505 -118.248194 115 4969ft 113kts
07-Aug-13 20:10 34.137773 -118.212778 116 4966ft 112kts
07-Aug-13 20:11 34.125527 -118.177821 116 4982ft 113kts
07-Aug-13 20:12 34.107543 -118.123712 114 4975ft 117kts
07-Aug-13 20:14 34.089868 -118.068733 114 4978ft 117kts
07-Aug-13 20:15 34.077966 -118.031924 114 4980ft 118kts
07-Aug-13 20:16 34.065921 -117.994851 114 4975ft 118kts
07-Aug-13 20:17 34.054013 -117.957961 112 4996ft 118kts
07-Aug-13 20:18 34.043044 -117.920484 112 4998ft 118kts
07-Aug-13 20:19 34.032031 -117.882892 113 5001ft 119kts
07-Aug-13 20:20 34.021063 -117.845320 112 5028ft 121kts
07-Aug-13 20:21 34.009443 -117.806495 112 5032ft 124kts
07-Aug-13 20:22 33.997495 -117.767318 111 5016ft 124kts
07-Aug-13 20:23 33.984672 -117.728645 115 5024ft 124kts
07-Aug-13 20:24 33.973171 -117.696983 116 4994ft 126kts
07-Aug-13 20:25 33.959839 -117.660560 115 4999ft 112kts
07-Aug-13 20:26 33.948159 -117.625720 112 5000ft 119kts
07-Aug-13 20:27 33.936589 -117.585978 108 4996ft 129kts
07-Aug-13 20:28 33.923725 -117.545411 114 4980ft 127kts
07-Aug-13 20:29 33.919037 -117.507284 73 4976ft 120kts
07-Aug-13 20:30 33.933398 -117.471964 53 4855ft 117kts
07-Aug-13 20:31 33.947902 -117.437763 61 4651ft 117kts
07-Aug-13 20:32 33.961135 -117.405629 65 4621ft 107kts
07-Aug-13 20:33 33.972255 -117.371387 69 4464ft 104kts
07-Aug-13 20:34 33.981324 -117.339324 69 4470ft 97kts
07-Aug-13 20:35 33.992815 -117.311810 13 4517ft 90kts
07-Aug-13 20:36 33.992615 -117.332123 226 4376ft 101kts
07-Aug-13 20:37 33.979824 -117.354536 249 4447ft 99kts
07-Aug-13 20:38 33.977116 -117.396680 270 3584ft 106kts
07-Aug-13 20:39 33.977596 -117.428107 270 3511ft 95kts
07-Aug-13 20:40 33.976679 -117.454159 273 3494ft 88kts
07-Aug-13 20:41 33.977456 -117.490359 269 3059ft 96kts
07-Aug-13 20:42 33.975917 -117.522131 266 2426ft 93kts
07-Aug-13 20:43 33.976230 -117.547941 271 2110ft 86kts
07-Aug-13 20:44 33.976370 -117.577179 267 1566ft 89kts
07-Aug-13 20:45 33.976285 -117.606926 270 1083ft 84kts
07-Aug-13 20:46 33.975772 -117.631361 274 679ft 50kts
07-Aug-13 20:47 33.976463 -117.639176 354 656ft 8kts
07-Aug-13 20:48 33.976765 -117.639173 8 656ft 0kts
07-Aug-13 20:49 33.977236 -117.639263 1 656ft 11kts

Navigation Log

Ident Type
Flight plan parsing failed, navigation log unavailable